Time;durP1;ratioP1;P1;durP2;ratioP2;P2;SDS_P1;SDS_P2;PMS_P1;PMS_P2;Temp;Humidity;BMP_temperature;BMP_pressure;BME280_temperature;BME280_humidity;BME280_pressure;Samples;Min_cycle;Max_cycle;Signal;HPM_P1;HPM_P2
2021/12/28 00:02:00;;;;;;;2.40;0.90;;;7.60;99.90;;;;;;4879247;29;20224;-72
2021/12/28 00:04:26;;;;;;;4.60;0.80;;;7.60;99.90;;;;;;4878339;29;20192;-72
2021/12/28 00:06:51;;;;;;;1.90;1.30;;;7.60;99.90;;;;;;4878609;29;20181;-72
2021/12/28 00:09:17;;;;;;;4.30;1.00;;;7.60;99.90;;;;;;4879168;29;20194;-72
2021/12/28 00:11:42;;;;;;;5.73;1.20;;;7.50;99.90;;;;;;4878974;29;20688;-72
2021/12/28 00:14:08;;;;;;;6.17;1.53;;;7.50;99.90;;;;;;4879020;29;20224;-72
2021/12/28 00:17:58;;;;;;;5.10;1.63;;;7.50;99.90;;;;;;4879073;29;20182;-72
2021/12/28 00:19:20;;;;;;;6.40;1.00;;;7.50;99.90;;;;;;4878958;29;20786;-72
2021/12/28 00:21:45;;;;;;;9.50;1.27;;;7.50;99.90;;;;;;4878722;29;20437;-72
2021/12/28 00:24:11;;;;;;;1.93;0.70;;;7.50;99.90;;;;;;4895816;29;20263;-72
2021/12/28 00:26:36;;;;;;;1.57;0.90;;;7.50;99.90;;;;;;4897080;29;20209;-72
2021/12/28 00:29:02;;;;;;;2.97;1.70;;;7.50;99.90;;;;;;4894700;29;20187;-73
2021/12/28 00:31:27;;;;;;;5.20;1.10;;;7.50;99.90;;;;;;4896682;29;20243;-72
2021/12/28 00:33:55;;;;;;;7.00;1.47;;;7.50;99.90;;;;;;4896807;29;20203;-72
2021/12/28 00:36:20;;;;;;;6.70;1.00;;;7.50;99.90;;;;;;4897027;29;20200;-72
2021/12/28 00:38:46;;;;;;;2.70;1.13;;;7.40;99.90;;;;;;4896720;29;20466;-73
2021/12/28 00:41:12;;;;;;;3.33;1.03;;;7.50;99.90;;;;;;4897064;29;20779;-73
2021/12/28 00:43:38;;;;;;;7.93;1.70;;;7.40;99.90;;;;;;4897225;29;20271;-73
2021/12/28 00:46:05;;;;;;;5.17;1.03;;;7.40;99.90;;;;;;4895971;29;20267;-73
2021/12/28 00:48:31;;;;;;;6.40;1.20;;;7.40;99.90;;;;;;4897010;29;20504;-73
2021/12/28 00:50:57;;;;;;;6.90;1.37;;;7.40;99.90;;;;;;4897052;29;20894;-73
2021/12/28 00:53:23;;;;;;;6.23;1.53;;;7.50;99.90;;;;;;4897049;29;20460;-73
2021/12/28 00:55:49;;;;;;;17.67;1.40;;;7.50;99.90;;;;;;4897008;29;20645;-73
2021/12/28 00:58:15;;;;;;;4.07;1.17;;;7.50;99.90;;;;;;4897292;29;20516;-73
2021/12/28 05:31:51;;;;;;;5.83;3.10;;;7.40;99.90;;;;;;5336507;23;21016;-73
2021/12/28 05:34:17;;;;;;;16.73;3.87;;;7.40;99.90;;;;;;4894520;29;20468;-73
2021/12/28 05:36:43;;;;;;;8.90;3.80;;;7.40;99.90;;;;;;4896561;29;20184;-71
2021/12/28 05:39:08;;;;;;;9.13;3.67;;;7.40;99.90;;;;;;4896399;29;20186;-70
2021/12/28 05:41:34;;;;;;;5.23;1.30;;;7.40;99.90;;;;;;4895594;29;20288;-73
2021/12/28 05:43:59;;;;;;;7.07;1.80;;;7.40;99.90;;;;;;4894995;29;20553;-73
2021/12/28 05:46:25;;;;;;;2.60;1.20;;;7.40;99.90;;;;;;4896035;29;20200;-73
2021/12/28 05:48:50;;;;;;;3.43;1.10;;;7.40;99.90;;;;;;4896384;29;20199;-73
2021/12/28 05:51:16;;;;;;;5.33;1.23;;;7.50;99.90;;;;;;4895825;29;20215;-73
2021/12/28 05:53:41;;;;;;;2.70;0.93;;;7.40;99.90;;;;;;4896009;29;20215;-73
2021/12/28 05:56:07;;;;;;;3.43;0.93;;;7.50;99.90;;;;;;4896105;29;20207;-73
2021/12/28 05:58:33;;;;;;;4.87;2.17;;;7.40;99.90;;;;;;4896549;29;20182;-73
2021/12/28 06:00:59;;;;;;;2.80;1.43;;;7.50;99.90;;;;;;4896231;29;20200;-73
2021/12/28 06:03:24;;;;;;;4.50;1.57;;;7.50;99.90;;;;;;4895930;29;20182;-73
2021/12/28 06:05:50;;;;;;;3.07;1.30;;;7.50;99.90;;;;;;4896340;29;20181;-73
2021/12/28 06:08:15;;;;;;;5.13;1.50;;;7.50;99.90;;;;;;4896262;29;20684;-73
2021/12/28 06:10:41;;;;;;;10.83;1.20;;;7.50;99.90;;;;;;4896128;29;20271;-73
2021/12/28 06:13:06;;;;;;;5.63;1.30;;;7.50;99.90;;;;;;4895905;29;20211;-73
2021/12/28 06:15:32;;;;;;;6.53;1.87;;;7.50;99.90;;;;;;4896446;29;20522;-73
2021/12/28 06:17:57;;;;;;;2.80;1.50;;;7.50;99.90;;;;;;4896400;29;20183;-73
2021/12/28 06:20:23;;;;;;;6.03;2.47;;;7.50;99.90;;;;;;4895978;29;20180;-72
2021/12/28 06:22:49;;;;;;;3.50;2.00;;;7.50;99.90;;;;;;4895981;29;20206;-72
2021/12/28 06:25:15;;;;;;;10.20;2.37;;;7.60;99.90;;;;;;4895992;29;20651;-73
2021/12/28 06:27:40;;;;;;;5.30;1.80;;;7.60;99.90;;;;;;4896228;29;20188;-73
2021/12/28 06:30:07;;;;;;;5.13;1.20;;;7.60;99.90;;;;;;4895910;29;20175;-73
2021/12/28 06:32:32;;;;;;;2.13;1.37;;;7.50;99.90;;;;;;4895412;29;20465;-72
2021/12/28 06:34:58;;;;;;;2.90;0.93;;;7.50;99.90;;;;;;4895333;29;20535;-72
2021/12/28 06:37:23;;;;;;;2.77;1.30;;;7.60;99.90;;;;;;4895783;29;20171;-73
2021/12/28 06:39:49;;;;;;;4.13;1.27;;;7.60;99.90;;;;;;4896114;29;20648;-73
2021/12/28 06:42:14;;;;;;;8.37;1.43;;;7.60;99.90;;;;;;4895683;29;20260;-73
2021/12/28 06:44:43;;;;;;;7.03;1.00;;;7.60;99.90;;;;;;4895929;29;20184;-73
2021/12/28 06:47:08;;;;;;;3.10;1.17;;;7.60;99.90;;;;;;4895853;29;20214;-73
2021/12/28 06:49:34;;;;;;;1.27;0.60;;;7.70;99.90;;;;;;4895943;29;20947;-73
2021/12/28 06:51:59;;;;;;;2.40;1.00;;;7.80;99.90;;;;;;4896851;29;20216;-73
2021/12/28 06:54:25;;;;;;;1.73;0.80;;;7.80;99.90;;;;;;4899197;29;20222;-73
2021/12/28 06:56:50;;;;;;;1.67;0.80;;;7.80;99.90;;;;;;4899400;29;20244;-73
2021/12/28 06:59:16;;;;;;;1.90;0.80;;;7.90;99.90;;;;;;4899139;29;20246;-73
2021/12/28 07:01:41;;;;;;;1.03;0.50;;;7.90;99.90;;;;;;4899104;29;20199;-73
2021/12/28 07:04:07;;;;;;;0.90;0.73;;;7.90;99.90;;;;;;4899003;29;20181;-73
2021/12/28 07:06:32;;;;;;;0.70;0.60;;;8.00;99.90;;;;;;4898043;29;20235;-73
2021/12/28 07:08:58;;;;;;;0.60;0.60;;;8.00;99.90;;;;;;4899453;29;20673;-71
2021/12/28 07:11:24;;;;;;;5.40;1.27;;;8.10;99.90;;;;;;4899078;29;20212;-73
2021/12/28 07:13:49;;;;;;;1.40;0.60;;;8.10;99.90;;;;;;4899434;29;20211;-73
2021/12/28 07:16:15;;;;;;;0.70;0.47;;;8.20;99.90;;;;;;4899255;29;20195;-73
2021/12/28 07:18:41;;;;;;;1.00;0.60;;;8.20;99.90;;;;;;4899698;29;20847;-72
2021/12/28 07:21:07;;;;;;;0.60;0.50;;;8.20;99.90;;;;;;4898726;29;20502;-73
2021/12/28 07:23:33;;;;;;;0.60;0.60;;;8.20;99.90;;;;;;4899027;29;20183;-73
2021/12/28 07:25:58;;;;;;;1.10;0.60;;;8.30;99.90;;;;;;4899389;29;20182;-73
2021/12/28 07:28:30;;;;;;;0.83;0.70;;;8.30;99.90;;;;;;4898978;29;20428;-73
2021/12/28 07:30:56;;;;;;;1.33;0.70;;;8.40;99.90;;;;;;4896714;29;20267;-74
2021/12/28 07:33:22;;;;;;;0.60;0.60;;;8.40;99.90;;;;;;4897699;29;20926;-74
2021/12/28 07:35:48;;;;;;;1.03;0.60;;;8.50;99.90;;;;;;4889532;29;20241;-74
2021/12/28 07:38:13;;;;;;;0.80;0.60;;;8.50;99.90;;;;;;4890494;29;20302;-73
2021/12/28 07:40:39;;;;;;;1.43;0.70;;;8.60;99.90;;;;;;4898157;29;21082;-73
2021/12/28 07:43:05;;;;;;;0.57;0.50;;;8.60;99.90;;;;;;4898275;29;20215;-74
2021/12/28 07:45:30;;;;;;;0.70;0.60;;;8.60;99.90;;;;;;4899255;29;20291;-74
2021/12/28 07:47:56;;;;;;;3.60;0.50;;;8.70;99.90;;;;;;4886709;29;20638;-74
2021/12/28 07:50:21;;;;;;;0.67;0.50;;;8.70;99.90;;;;;;4897660;29;20653;-73
2021/12/28 07:52:48;;;;;;;1.53;0.80;;;8.70;99.90;;;;;;4898066;29;20822;-72
2021/12/28 07:55:15;;;;;;;0.67;0.50;;;8.70;99.90;;;;;;4913175;29;20176;-75
2021/12/28 07:57:42;;;;;;;1.10;0.80;;;8.80;99.90;;;;;;4898370;29;20489;-73
2021/12/28 08:00:16;;;;;;;0.73;0.73;;;8.80;99.90;;;;;;4898416;29;20936;-74
2021/12/28 08:02:43;;;;;;;0.90;0.70;;;8.80;99.90;;;;;;4898896;29;20440;-74
2021/12/28 08:05:10;;;;;;;1.47;0.60;;;8.90;99.90;;;;;;4898424;29;20421;-74
2021/12/28 08:07:36;;;;;;;1.87;0.50;;;8.90;99.90;;;;;;4898402;29;20420;-74
2021/12/28 08:10:01;;;;;;;0.60;0.50;;;8.90;99.90;;;;;;4898338;29;20573;-74
2021/12/28 08:12:27;;;;;;;0.87;0.50;;;9.00;99.90;;;;;;4913070;29;20209;-74
2021/12/28 08:14:53;;;;;;;0.50;0.50;;;8.90;99.90;;;;;;4898492;29;20295;-75
2021/12/28 08:17:18;;;;;;;0.50;0.50;;;9.00;99.90;;;;;;4898261;29;20208;-74
2021/12/28 08:19:44;;;;;;;0.60;0.50;;;8.90;99.90;;;;;;4898090;29;20177;-74
2021/12/28 08:22:09;;;;;;;0.73;0.60;;;8.90;99.90;;;;;;4897966;29;20694;-74
2021/12/28 08:24:35;;;;;;;0.40;0.40;;;8.90;99.90;;;;;;4897938;29;20177;-72
2021/12/28 08:27:01;;;;;;;3.17;0.50;;;8.80;99.90;;;;;;4898353;29;20182;-75
2021/12/28 08:29:26;;;;;;;0.97;0.40;;;8.80;99.90;;;;;;4898077;29;20190;-75
2021/12/28 08:31:52;;;;;;;1.30;0.80;;;8.80;99.90;;;;;;4897708;29;20464;-74
2021/12/28 08:34:17;;;;;;;1.23;0.50;;;8.80;99.90;;;;;;4897684;29;20325;-74
2021/12/28 08:36:44;;;;;;;0.47;0.47;;;8.80;99.90;;;;;;4898694;29;20187;-75
2021/12/28 08:39:09;;;;;;;0.70;0.50;;;8.80;99.90;;;;;;4898536;29;20263;-75
2021/12/28 08:41:35;;;;;;;0.90;0.40;;;8.80;99.90;;;;;;4897861;29;20463;-75
2021/12/28 08:44:00;;;;;;;0.77;0.40;;;8.90;99.90;;;;;;4898276;29;20187;-74
2021/12/28 08:46:26;;;;;;;0.90;0.40;;;8.90;99.90;;;;;;4898165;29;20647;-74
2021/12/28 08:48:52;;;;;;;0.50;0.50;;;9.00;99.90;;;;;;4898564;29;20184;-73
2021/12/28 08:51:18;;;;;;;1.63;0.50;;;9.00;99.90;;;;;;4897675;29;20200;-74
2021/12/28 08:53:43;;;;;;;0.43;0.43;;;9.00;99.90;;;;;;4898008;29;20514;-71
2021/12/28 08:56:09;;;;;;;0.90;0.40;;;9.00;99.90;;;;;;4897986;29;20191;-74
2021/12/28 08:58:35;;;;;;;1.63;0.40;;;9.10;99.90;;;;;;4899009;29;20270;-73
2021/12/28 09:01:01;;;;;;;0.73;0.70;;;9.10;99.90;;;;;;4897256;29;20206;-73
2021/12/28 09:03:27;;;;;;;0.40;0.40;;;9.20;99.90;;;;;;4897335;29;20180;-73
2021/12/28 09:05:52;;;;;;;0.47;0.40;;;9.30;99.90;;;;;;4897683;29;20502;-74
2021/12/28 09:08:18;;;;;;;0.47;0.47;;;9.40;99.90;;;;;;4897208;29;20484;-73
2021/12/28 09:10:45;;;;;;;0.40;0.40;;;9.40;99.90;;;;;;4897339;29;20336;-73
2021/12/28 09:13:13;;;;;;;0.40;0.40;;;9.50;99.90;;;;;;4896889;29;20470;-74
2021/12/28 09:15:40;;;;;;;0.70;0.40;;;9.40;99.90;;;;;;4896570;29;20422;-73
2021/12/28 09:18:05;;;;;;;0.43;0.40;;;9.40;99.90;;;;;;4897570;29;20560;-73
2021/12/28 09:20:31;;;;;;;0.50;0.40;;;9.50;99.90;;;;;;4897459;29;20876;-72
2021/12/28 09:22:56;;;;;;;0.60;0.40;;;9.60;99.90;;;;;;4897118;29;20186;-73
2021/12/28 09:25:23;;;;;;;0.57;0.37;;;9.80;99.90;;;;;;4897502;29;20184;-73
2021/12/28 09:27:49;;;;;;;0.43;0.40;;;9.90;99.90;;;;;;4896979;29;20251;-73
2021/12/28 09:30:16;;;;;;;0.50;0.40;;;9.80;99.90;;;;;;4896657;29;20420;-74
2021/12/28 09:32:42;;;;;;;0.50;0.50;;;10.00;99.90;;;;;;4896871;29;20839;-73
2021/12/28 09:35:09;;;;;;;0.40;0.40;;;10.10;99.90;;;;;;4913617;29;20471;-73
2021/12/28 09:37:36;;;;;;;0.40;0.40;;;10.10;99.90;;;;;;4915940;29;20506;-75
2021/12/28 09:40:04;;;;;;;0.40;0.40;;;10.10;99.90;;;;;;4916179;29;20452;-73
2021/12/28 09:42:30;;;;;;;2.77;0.40;;;10.10;99.90;;;;;;4901694;29;20455;-74
2021/12/28 09:44:55;;;;;;;2.60;0.50;;;10.10;99.90;;;;;;4896443;29;21005;-73
2021/12/28 09:47:21;;;;;;;2.03;0.40;;;10.10;99.90;;;;;;4896422;29;20186;-73
2021/12/28 09:49:47;;;;;;;0.50;0.40;;;10.10;99.90;;;;;;4896438;29;20186;-75
2021/12/28 09:52:14;;;;;;;0.40;0.40;;;10.10;99.90;;;;;;4895941;29;20214;-72
2021/12/28 09:54:41;;;;;;;0.40;0.40;;;10.00;99.90;;;;;;4896179;29;20492;-74
2021/12/28 09:57:06;;;;;;;0.40;0.40;;;10.10;99.90;;;;;;4896568;29;20425;-73
2021/12/28 09:59:33;;;;;;;1.10;0.50;;;10.10;99.90;;;;;;4896191;29;20408;-73
2021/12/28 10:02:01;;;;;;;0.50;0.50;;;10.00;99.90;;;;;;4896104;29;20225;-73
2021/12/28 10:04:27;;;;;;;0.53;0.40;;;10.10;99.90;;;;;;4896237;29;20509;-72
2021/12/28 10:07:15;;;;;;;0.50;0.40;;;10.10;99.90;;;;;;4896108;29;20792;-73
2021/12/28 10:09:41;;;;;;;0.40;0.40;;;10.20;99.90;;;;;;4896323;29;20420;-73
2021/12/28 10:12:07;;;;;;;0.60;0.50;;;10.30;99.90;;;;;;4896248;29;21033;-74
2021/12/28 10:14:33;;;;;;;2.23;0.43;;;10.40;99.90;;;;;;4896251;29;20208;-75
2021/12/28 10:17:00;;;;;;;0.50;0.40;;;10.50;99.90;;;;;;4896436;29;20790;-76
2021/12/28 10:19:41;;;;;;;1.17;0.40;;;10.60;99.90;;;;;;4896299;29;20181;-73
2021/12/28 10:22:22;;;;;;;0.70;0.70;;;10.70;99.90;;;;;;4895386;29;20433;-73
2021/12/28 10:24:50;;;;;;;1.17;0.40;;;11.00;99.90;;;;;;4895839;29;20519;-71
2021/12/28 10:27:19;;;;;;;0.73;0.40;;;11.10;99.90;;;;;;4897396;29;20564;-73
2021/12/28 10:29:45;;;;;;;0.90;0.67;;;11.50;99.90;;;;;;4900160;29;20480;-73
2021/12/28 10:32:28;;;;;;;1.90;0.40;;;11.80;99.90;;;;;;4899650;29;20548;-73
2021/12/28 10:34:57;;;;;;;0.50;0.50;;;11.80;99.90;;;;;;4898869;29;20242;-74
2021/12/28 10:37:27;;;;;;;0.40;0.40;;;11.90;99.90;;;;;;4898873;29;20823;-74
2021/12/28 10:39:58;;;;;;;0.40;0.40;;;11.90;99.90;;;;;;4899469;29;20515;-74
2021/12/28 10:42:42;;;;;;;0.47;0.40;;;12.00;99.90;;;;;;4898811;29;20534;-73
2021/12/28 10:45:13;;;;;;;0.40;0.37;;;11.90;99.90;;;;;;4897380;29;20990;-74
2021/12/28 10:47:39;;;;;;;0.40;0.30;;;11.90;99.90;;;;;;4896580;29;20418;-74
2021/12/28 10:50:29;;;;;;;0.40;0.33;;;12.10;99.90;;;;;;4898301;29;20422;-76
2021/12/28 10:53:11;;;;;;;2.40;0.43;;;12.30;99.90;;;;;;4899133;29;20422;-74
2021/12/28 10:55:40;;;;;;;0.43;0.40;;;12.40;99.90;;;;;;4899381;29;20423;-74
2021/12/28 10:58:06;;;;;;;0.40;0.40;;;12.40;99.90;;;;;;4899443;29;20426;-73
2021/12/28 11:00:42;;;;;;;0.40;0.30;;;12.40;99.90;;;;;;4899009;29;20911;-71
2021/12/28 11:03:14;;;;;;;0.90;0.50;;;12.60;99.90;;;;;;4899009;29;20684;-73
2021/12/28 11:05:42;;;;;;;0.50;0.43;;;12.70;99.90;;;;;;4899130;29;20442;-74
2021/12/28 11:08:08;;;;;;;0.40;0.30;;;12.80;99.90;;;;;;4899379;29;20422;-74
2021/12/28 11:10:39;;;;;;;0.30;0.30;;;12.80;99.90;;;;;;4898792;29;20521;-73
2021/12/28 11:13:04;;;;;;;0.70;0.40;;;13.00;99.90;;;;;;4898728;29;20438;-74
2021/12/28 11:15:36;;;;;;;0.77;0.77;;;13.10;99.90;;;;;;4898873;29;20978;-74
2021/12/28 11:18:20;;;;;;;0.50;0.40;;;13.20;99.90;;;;;;4898133;29;20513;-75
2021/12/28 11:20:46;;;;;;;0.40;0.40;;;13.50;99.90;;;;;;4898763;29;20460;-74
2021/12/28 11:23:21;;;;;;;0.40;0.30;;;13.60;99.90;;;;;;4898790;29;20421;-74
2021/12/28 11:26:00;;;;;;;0.50;0.47;;;13.70;99.90;;;;;;4898676;29;20443;-74
2021/12/28 11:28:26;;;;;;;0.50;0.40;;;13.40;99.90;;;;;;4898752;29;20410;-74
2021/12/28 11:31:09;;;;;;;0.60;0.53;;;13.30;99.90;;;;;;4898224;29;20455;-73
2021/12/28 11:33:59;;;;;;;0.50;0.40;;;13.20;99.90;;;;;;4898250;29;20553;-74
2021/12/28 11:36:29;;;;;;;0.50;0.40;;;13.20;99.90;;;;;;4898491;29;20810;-73
2021/12/28 11:38:57;;;;;;;2.20;0.80;;;13.20;99.90;;;;;;4897683;29;20766;-72
2021/12/28 11:41:25;;;;;;;0.60;0.40;;;13.10;99.90;;;;;;4896697;29;20443;-74
2021/12/28 11:43:52;;;;;;;0.40;0.40;;;13.10;99.90;;;;;;4898293;29;20916;-74
2021/12/28 11:46:18;;;;;;;0.70;0.40;;;13.00;99.90;;;;;;4898271;29;20414;-73
2021/12/28 11:48:44;;;;;;;0.50;0.40;;;13.00;99.90;;;;;;4898595;29;20935;-74
2021/12/28 11:51:10;;;;;;;0.47;0.40;;;12.90;99.90;;;;;;4898024;29;20225;-73
2021/12/28 11:53:40;;;;;;;0.90;0.50;;;12.80;99.90;;;;;;4898049;29;20463;-74
2021/12/28 11:56:07;;;;;;;0.53;0.50;;;12.90;99.90;;;;;;4898272;29;20540;-74
2021/12/28 11:58:58;;;;;;;0.60;0.60;;;12.80;99.90;;;;;;4898152;29;20419;-74
2021/12/28 12:01:52;;;;;;;1.20;0.60;;;12.70;99.90;;;;;;4897905;29;20939;-74
2021/12/28 12:04:32;;;;;;;0.60;0.60;;;12.60;99.90;;;;;;4897878;29;20414;-72
2021/12/28 12:07:10;;;;;;;0.60;0.60;;;12.50;99.90;;;;;;4898250;29;20995;-72
2021/12/28 12:09:54;;;;;;;0.63;0.50;;;12.40;99.90;;;;;;4898085;29;20427;-74
2021/12/28 12:12:22;;;;;;;0.57;0.50;;;12.30;99.90;;;;;;4898046;29;20430;-74
2021/12/28 12:14:51;;;;;;;0.70;0.57;;;12.30;99.90;;;;;;4898360;29;20466;-74
2021/12/28 12:17:28;;;;;;;0.70;0.40;;;12.20;99.90;;;;;;4898643;29;20422;-73
2021/12/28 12:19:56;;;;;;;1.10;0.60;;;12.10;99.90;;;;;;4898273;29;20526;-74
2021/12/28 12:22:30;;;;;;;0.57;0.50;;;12.00;99.90;;;;;;4898355;29;20542;-73
2021/12/28 12:25:03;;;;;;;1.60;1.23;;;11.80;99.90;;;;;;4897814;29;20419;-73
2021/12/28 12:27:48;;;;;;;0.97;0.63;;;11.80;99.90;;;;;;4897558;29;20427;-72
2021/12/28 12:30:28;;;;;;;0.50;0.50;;;11.70;99.90;;;;;;4897637;29;20430;-73
2021/12/28 12:33:00;;;;;;;0.50;0.50;;;11.70;99.90;;;;;;4897793;29;20439;-73
2021/12/28 12:35:39;;;;;;;0.60;0.60;;;11.70;99.90;;;;;;4897759;29;20900;-74
2021/12/28 12:38:14;;;;;;;0.60;0.60;;;11.60;99.90;;;;;;4898022;29;20755;-73
2021/12/28 12:40:59;;;;;;;1.27;0.50;;;11.70;99.90;;;;;;4895661;29;20744;-74
2021/12/28 12:43:35;;;;;;;2.43;0.50;;;11.70;99.90;;;;;;4897521;29;20429;-73
2021/12/28 12:46:05;;;;;;;0.50;0.50;;;11.70;99.90;;;;;;4897777;29;20425;-72
2021/12/28 12:48:36;;;;;;;0.70;0.57;;;11.70;99.90;;;;;;4897802;29;20415;-74
2021/12/28 12:51:23;;;;;;;1.70;0.50;;;11.80;99.90;;;;;;4897177;29;20445;-73
2021/12/28 12:53:50;;;;;;;2.00;1.50;;;11.70;99.90;;;;;;4897169;29;20474;-73
2021/12/28 12:56:22;;;;;;;0.70;0.67;;;11.70;99.90;;;;;;4897540;29;20498;-73
2021/12/28 12:58:49;;;;;;;0.60;0.50;;;11.70;99.90;;;;;;4897624;29;20810;-73
2021/12/28 13:01:37;;;;;;;0.50;0.50;;;11.60;99.90;;;;;;4896729;29;20439;-73
2021/12/28 13:04:26;;;;;;;0.50;0.47;;;11.70;99.90;;;;;;4894311;29;21004;-74
2021/12/28 13:07:13;;;;;;;0.60;0.50;;;11.70;99.90;;;;;;4897113;29;20800;-74
2021/12/28 13:09:44;;;;;;;0.50;0.50;;;11.70;99.90;;;;;;4896925;29;20446;-74
2021/12/28 13:12:15;;;;;;;3.60;0.50;;;11.70;99.90;;;;;;4896949;29;20450;-75
2021/12/28 13:14:42;;;;;;;0.67;0.60;;;11.70;99.90;;;;;;4897206;29;20466;-75
2021/12/28 13:17:17;;;;;;;0.60;0.60;;;11.80;99.90;;;;;;4897191;29;20419;-76
2021/12/28 13:20:07;;;;;;;2.00;0.90;;;11.80;99.90;;;;;;4896965;29;20410;-73
2021/12/28 13:22:37;;;;;;;3.63;0.80;;;11.80;99.90;;;;;;4896677;29;20442;-74
2021/12/28 13:25:05;;;;;;;0.60;0.60;;;11.70;99.90;;;;;;4897230;29;20422;-74
2021/12/28 13:27:32;;;;;;;0.57;0.53;;;11.70;99.90;;;;;;4896811;29;21137;-73
2021/12/28 13:29:58;;;;;;;0.77;0.70;;;11.80;99.90;;;;;;4896830;29;20793;-73
2021/12/28 13:32:34;;;;;;;0.80;0.80;;;11.80;99.90;;;;;;4895558;29;20798;-74
2021/12/28 13:35:08;;;;;;;0.77;0.57;;;11.80;99.90;;;;;;4896875;29;20963;-73
2021/12/28 13:38:03;;;;;;;0.60;0.50;;;11.80;99.90;;;;;;4896863;29;20417;-74
2021/12/28 13:40:35;;;;;;;1.13;0.60;;;11.80;99.90;;;;;;4896409;29;20424;-74
2021/12/28 13:43:00;;;;;;;0.97;0.77;;;11.80;99.90;;;;;;4896921;29;20512;-74
2021/12/28 13:45:31;;;;;;;3.13;0.60;;;11.80;99.90;;;;;;4896720;29;20461;-74
2021/12/28 13:48:00;;;;;;;0.60;0.60;;;11.80;99.90;;;;;;4896683;29;20185;-74
2021/12/28 13:50:28;;;;;;;0.77;0.57;;;11.80;99.90;;;;;;4894860;29;20457;-71
2021/12/28 13:52:59;;;;;;;2.50;0.70;;;11.80;99.90;;;;;;4896246;29;21152;-74
2021/12/28 13:55:32;;;;;;;0.93;0.80;;;11.80;99.90;;;;;;4896321;29;20460;-73
2021/12/28 13:57:59;;;;;;;1.33;1.10;;;11.70;99.90;;;;;;4896521;29;20415;-74
2021/12/28 14:00:28;;;;;;;3.17;1.33;;;11.70;99.90;;;;;;4896071;29;20426;-74
2021/12/28 14:03:05;;;;;;;3.00;2.00;;;11.70;99.90;;;;;;4901238;29;21164;-75
2021/12/28 14:05:33;;;;;;;1.83;0.87;;;11.70;99.90;;;;;;4902606;29;20421;-75
2021/12/28 14:07:59;;;;;;;1.93;1.10;;;11.60;99.90;;;;;;4902654;29;20843;-75
2021/12/28 14:10:33;;;;;;;1.50;1.40;;;11.60;99.90;;;;;;4902152;29;20474;-73
2021/12/28 14:13:20;;;;;;;1.63;1.50;;;11.60;99.90;;;;;;4902128;29;20426;-74
2021/12/28 14:16:00;;;;;;;1.00;0.70;;;11.50;99.90;;;;;;4902584;29;20837;-74
2021/12/28 14:18:48;;;;;;;5.63;1.40;;;11.50;99.90;;;;;;4900143;29;20412;-74
2021/12/28 14:21:16;;;;;;;2.10;0.77;;;11.50;99.90;;;;;;4902147;29;20201;-74
2021/12/28 14:23:43;;;;;;;1.67;1.57;;;11.50;99.90;;;;;;4902322;29;20774;-74
2021/12/28 14:26:16;;;;;;;2.10;1.90;;;11.50;99.90;;;;;;4902593;29;20418;-75
2021/12/28 14:28:43;;;;;;;5.27;2.53;;;11.50;99.90;;;;;;4901160;29;20435;-74
2021/12/28 14:31:21;;;;;;;18.77;10.80;;;11.40;99.90;;;;;;4901824;29;20964;-74
2021/12/28 14:33:57;;;;;;;29.67;16.67;;;11.40;99.90;;;;;;4902176;29;20540;-73
2021/12/28 14:36:32;;;;;;;13.90;8.70;;;11.40;99.90;;;;;;4902474;29;20410;-73
2021/12/28 14:39:15;;;;;;;4.03;3.63;;;11.40;99.90;;;;;;4902030;29;20425;-75
2021/12/28 14:41:43;;;;;;;2.30;1.20;;;11.40;99.90;;;;;;4902053;29;20438;-74
2021/12/28 14:44:11;;;;;;;2.83;0.97;;;11.40;99.90;;;;;;4900714;29;20431;-74
2021/12/28 14:46:38;;;;;;;1.57;1.17;;;11.30;99.90;;;;;;4900177;29;20445;-71
2021/12/28 14:49:28;;;;;;;6.47;1.00;;;11.30;99.90;;;;;;4900811;29;20430;-74
2021/12/28 14:52:17;;;;;;;3.40;1.83;;;11.20;99.90;;;;;;4902000;29;20533;-74
2021/12/28 14:54:53;;;;;;;3.23;1.97;;;11.00;99.90;;;;;;4901665;29;20556;-72
2021/12/28 14:57:19;;;;;;;14.07;6.50;;;11.00;99.90;;;;;;4902009;29;20419;-73
2021/12/28 14:59:49;;;;;;;6.90;3.20;;;10.90;99.90;;;;;;4902108;29;20500;-74
2021/12/28 15:02:17;;;;;;;2.63;1.87;;;10.80;99.90;;;;;;4901837;29;20438;-74
2021/12/28 15:04:59;;;;;;;6.20;1.37;;;10.70;99.90;;;;;;4902075;29;20418;-74
2021/12/28 15:07:26;;;;;;;1.07;0.70;;;10.70;99.90;;;;;;4902233;29;20521;-74
2021/12/28 15:10:01;;;;;;;2.60;1.00;;;10.70;99.90;;;;;;4902193;29;20418;-75
2021/12/28 15:12:44;;;;;;;1.90;1.40;;;10.60;99.90;;;;;;4901563;29;20510;-75
2021/12/28 15:15:12;;;;;;;7.20;1.40;;;10.50;99.90;;;;;;4898913;29;20461;-74
2021/12/28 15:17:39;;;;;;;3.57;1.07;;;10.40;99.90;;;;;;4899006;29;20422;-73
2021/12/28 15:20:06;;;;;;;9.27;2.10;;;10.10;99.90;;;;;;4889957;29;20523;-74
2021/12/28 15:22:32;;;;;;;4.73;1.27;;;9.60;99.90;;;;;;4879488;29;20466;-74
2021/12/28 15:24:58;;;;;;;11.47;3.90;;;9.30;99.90;;;;;;4893133;29;20476;-73
2021/12/28 15:27:23;;;;;;;3.17;1.50;;;9.10;99.90;;;;;;4898393;29;20670;-74
2021/12/28 15:29:49;;;;;;;3.70;1.90;;;9.00;99.90;;;;;;4898432;29;20249;-73
2021/12/28 15:32:15;;;;;;;6.63;1.17;;;8.90;99.90;;;;;;4898676;29;20300;-74
2021/12/28 15:34:41;;;;;;;3.87;2.03;;;8.80;99.90;;;;;;4897977;29;20490;-74
2021/12/28 15:37:07;;;;;;;6.60;2.90;;;8.70;99.90;;;;;;4897759;29;20427;-74
2021/12/28 15:39:32;;;;;;;3.00;1.80;;;8.70;99.90;;;;;;4898081;29;20249;-74
2021/12/28 15:41:58;;;;;;;6.10;0.93;;;8.60;99.90;;;;;;4895513;29;20452;-74
2021/12/28 15:44:25;;;;;;;7.50;0.90;;;8.60;99.90;;;;;;4889733;29;20222;-74
2021/12/28 15:46:55;;;;;;;5.03;1.40;;;8.60;99.90;;;;;;4894761;29;20213;-74
2021/12/28 15:49:20;;;;;;;3.30;1.30;;;8.60;99.90;;;;;;4897685;29;20534;-74
2021/12/28 15:51:47;;;;;;;4.97;1.27;;;8.40;99.90;;;;;;4897665;29;20473;-74
2021/12/28 15:54:14;;;;;;;7.07;1.83;;;8.40;99.90;;;;;;4893863;29;20752;-76
2021/12/28 15:56:42;;;;;;;2.40;1.10;;;8.30;99.90;;;;;;4896095;29;20986;-76
2021/12/28 15:59:08;;;;;;;5.57;1.20;;;8.30;99.90;;;;;;4896764;29;20510;-74
2021/12/28 16:01:35;;;;;;;5.93;1.27;;;8.20;99.90;;;;;;4897650;29;20458;-73
2021/12/28 16:04:01;;;;;;;3.13;1.30;;;8.10;99.90;;;;;;4897330;29;20475;-74
2021/12/28 16:06:26;;;;;;;3.53;1.30;;;8.00;99.90;;;;;;4886736;29;20420;-74
2021/12/28 16:08:52;;;;;;;3.53;1.50;;;8.00;99.90;;;;;;4897022;29;20973;-74
2021/12/28 16:11:20;;;;;;;8.53;1.57;;;7.90;99.90;;;;;;4897030;29;20215;-74
2021/12/28 16:13:46;;;;;;;4.50;1.30;;;7.90;99.90;;;;;;4897085;29;20526;-73
2021/12/28 16:16:14;;;;;;;5.93;1.63;;;7.90;99.90;;;;;;4894830;29;20821;-73
2021/12/28 16:18:40;;;;;;;5.87;1.40;;;7.90;99.90;;;;;;4888915;29;21044;-73
2021/12/28 16:21:05;;;;;;;6.30;1.13;;;7.80;99.90;;;;;;4896883;29;20536;-73
2021/12/28 16:23:31;;;;;;;11.83;0.80;;;7.70;99.90;;;;;;4896895;29;20630;-74
2021/12/28 16:25:57;;;;;;;2.40;0.80;;;7.60;99.90;;;;;;4896758;29;20210;-73
2021/12/28 16:28:23;;;;;;;5.40;0.67;;;7.60;99.90;;;;;;4885283;29;20768;-73
2021/12/28 16:30:49;;;;;;;2.80;0.70;;;7.50;99.90;;;;;;4896990;29;20558;-73
2021/12/28 16:33:15;;;;;;;2.97;1.23;;;7.40;99.90;;;;;;4896505;29;20245;-73
2021/12/28 16:35:41;;;;;;;1.03;0.67;;;7.30;99.90;;;;;;4898027;29;20495;-75
2021/12/28 16:38:06;;;;;;;1.80;0.50;;;7.30;99.90;;;;;;4892794;29;20231;-74
2021/12/28 16:40:33;;;;;;;4.23;0.60;;;7.20;99.90;;;;;;4889267;29;20223;-72
2021/12/28 16:43:00;;;;;;;2.93;0.50;;;7.20;99.90;;;;;;4885433;29;20222;-73
2021/12/28 16:45:27;;;;;;;2.10;0.73;;;7.10;99.90;;;;;;4896828;29;20511;-75
2021/12/28 16:47:53;;;;;;;1.67;0.40;;;7.10;99.90;;;;;;4896845;29;20485;-76
2021/12/28 16:50:20;;;;;;;1.00;0.53;;;7.10;99.90;;;;;;4885213;29;21124;-74
2021/12/28 16:52:46;;;;;;;1.53;0.50;;;7.10;99.90;;;;;;4896676;29;20466;-74
2021/12/28 16:55:12;;;;;;;0.53;0.53;;;7.10;99.90;;;;;;4896659;29;20499;-76
2021/12/28 16:57:39;;;;;;;1.00;0.90;;;7.10;99.90;;;;;;4896707;29;20274;-75
2021/12/28 17:00:08;;;;;;;3.07;0.40;;;7.10;99.90;;;;;;4889905;29;20464;-75
2021/12/28 17:02:34;;;;;;;2.23;0.60;;;7.20;99.90;;;;;;4894130;29;20467;-75
2021/12/28 17:04:59;;;;;;;2.10;0.50;;;7.20;99.90;;;;;;4896585;29;20485;-76
2021/12/28 17:07:25;;;;;;;3.07;0.60;;;7.10;99.90;;;;;;4896617;29;20578;-76
2021/12/28 17:09:50;;;;;;;1.63;0.53;;;7.20;99.90;;;;;;4896282;29;20233;-76
2021/12/28 17:12:16;;;;;;;5.40;0.60;;;7.20;99.90;;;;;;4893178;29;20598;-76
2021/12/28 17:14:43;;;;;;;2.27;0.70;;;7.20;99.90;;;;;;4896143;29;20235;-76
2021/12/28 17:17:09;;;;;;;2.10;0.40;;;7.20;99.90;;;;;;4896855;29;20344;-76
2021/12/28 17:19:35;;;;;;;1.60;0.60;;;7.20;99.90;;;;;;4896616;29;21025;-76
2021/12/28 17:22:01;;;;;;;2.23;0.50;;;7.20;99.90;;;;;;4887434;29;20468;-74
2021/12/28 17:24:26;;;;;;;6.73;0.50;;;7.30;99.90;;;;;;4893809;29;20231;-75
2021/12/28 17:26:52;;;;;;;5.80;0.70;;;7.20;99.90;;;;;;4896806;29;20246;-75
2021/12/28 17:29:19;;;;;;;0.80;0.50;;;7.20;99.90;;;;;;4884945;29;20241;-75
2021/12/28 17:31:44;;;;;;;2.90;0.80;;;7.10;99.90;;;;;;4896272;29;20480;-76
2021/12/28 17:34:11;;;;;;;2.90;0.90;;;7.20;99.90;;;;;;4895471;29;20505;-76